Tiempo atmosférico en la estación meteorológica de Fuente De Cantos, Badajoz (602 m.)



Fecha
DESCASC
Temp. máxima en grados centígrados (hora)
DESCASC
Temp. mínima en grados centígrados (hora)
DESCASC
Temp. media en grados centígrados
DESCASC
Racha de viento máxima en m/sg (hora)
DESCASC
Velocidad máxima media en intervalos de 10 minutos(hora)
DESCASC
Precipitaciones diarias en mm
DESCASC
Precipitaciones de 00:00 a 06:00 en mm
DESCASC
Precipitaciones de 06:00 a 12:00 en mm
DESCASC
Precipitaciones de 12:00 a 18:00 en mm
DESCASC
Precipitaciones de 18:00 a 24:00 en mm
DESCASC
15-11-2018 18.5 (15:00) 10.9 (08:20) 14.7 7.78 (07:40) 6.11 (00:20) 0 0 0 0 0
14-11-2018 19 (14:40) 9.2 (06:10) 14.1 8.06 (18:30) 6.11 (18:30) 2.4 0 0.2 0 2.2
13-11-2018 17.1 (16:00) 9.5 (08:00) 13.3 6.39 (14:40) 4.17 (17:50) 0 0 0 0 0
12-11-2018 13.9 (14:50) 10.2 (23:40) 12 12.78 (02:10) 9.44 (02:00) 4.4 1.4 1.4 0.4 1.2
11-11-2018 17 (15:50) 10.4 (00:00) 13.7 12.78 (16:30) 9.44 (17:50) 6.2 0.2 0 0 6
10-11-2018 15.7 (15:00) 9.5 (00:00) 12.6 13.89 (11:40) 10.56 (13:20) 0 0 0 0 0
09-11-2018 13.1 (15:00) 4.9 (00:00) 9 8.89 (16:40) 6.94 (16:40) 0.2 0 0.2 0 0
08-11-2018 14.1 (16:20) 6.8 (00:00) 10.5 19.72 (19:40) 12.78 (19:40) 0.8 0 0.4 0.2 0.2
07-11-2018 14.7 (16:00) 9.9 (00:00) 12.3 12.5 (07:50) 9.17 (07:50) 0.2 0 0.2 0 0
06-11-2018 13.5 (16:00) 5.4 (00:00) 9.5 9.44 (15:50) 7.22 (15:50) 0 0 0 0 0
05-11-2018 11.1 (15:40) 5.5 (00:00) 8.3 15 (17:30) 10 (00:50) 8.4 7.4 0.2 0.8 0
04-11-2018 13.9 (15:00) 7.3 (00:00) 10.6 11.11 (20:00) 8.61 (17:30) 2.2 0.4 0 0 1.8
03-11-2018 17.3 (16:20) 8.4 (00:00) 12.8 5.56 (14:30) 4.44 (17:50) 0.2 0.2 0 0 0
02-11-2018 15.6 (17:00) 7.7 (00:00) 11.7 9.72 (13:00) 6.94 (13:20) 0 0 0 0 0
01-11-2018 14 (16:50) 3.8 (00:00) 8.9 7.78 (14:30) 5.56 (18:00) 0.2 0.2 0 0 0
31-10-2018 9.4 (12:50) 5.5 (00:00) 7.4 11.94 (05:40) 7.78 (06:40) 5.4 0 0 4.2 1.2
30-10-2018 10.6 (16:30) 5.2 (00:00) 7.9 13.61 (18:20) 8.89 (18:20) 8.2 0.8 4.8 1.2 1.4
29-10-2018 11.9 (16:20) 0.7 (00:00) 6.3 13.61 (16:30) 10.56 (16:30) 0 0 0 0 0
28-10-2018 10.6 (16:30) 1.8 (00:00) 6.2 14.72 (17:30) 10.28 (16:50) 0 0 0 0 0
27-10-2018 14.6 (15:50) 6.5 (00:00) 10.6 14.44 (18:40) 11.39 (17:40) 3.6 3.4 0 0.2 0
26-10-2018 16.6 (03:10) 13.2 (00:00) 14.9 6.39 (16:50) 4.44 (11:00) 1.8 0 0.4 0.8 0.6
25-10-2018 23.7 (15:30) 14.3 (00:00) 19 6.11 (14:30) 4.17 (07:10) 0 0 0 0 0
24-10-2018 23.6 (16:50) 13.4 (00:00) 18.5 6.39 (16:50) 3.61 (20:50) 0 0 0 0 0
23-10-2018 21.5 (16:10) 14.7 (00:00) 18.1 6.39 (08:50) 5.28 (08:50) 0 0 0 0 0
22-10-2018 22.4 (16:40) 11.7 (00:00) 17 6.39 (17:00) 4.72 (16:50) 0 0 0 0 0
21-10-2018 21 (16:00) 11.9 (00:00) 16.4 12.78 (13:40) 10.28 (13:40) 2.4 1 1.4 0 0
20-10-2018 16 (16:20) 9.8 (00:00) 12.9 11.94 (22:30) 8.61 (22:30) 5.4 0 0 0 5.4
19-10-2018 17.6 (17:50) 9.8 (00:00) 13.7 8.89 (13:20) 5.83 (13:20) 2 0.4 1.6 0 0
18-10-2018 15 (00:00) 9.8 (00:00) 12.4 12.22 (13:50) 8.89 (13:30) 16.8 0 14.8 2 0

Gráficas

Temp. máximas Temp. mínimas Temp. medias Precipitaciones Rachas de viento máximas Velocidades máximas media en intervalos de 10 minutos

Datos horarios

Fecha y hora oficial Temperatura (ºC) Velocidad del viento (km/h) Dirección del viento Racha (km/h) Dirección de racha Precipitación (mm) Presión (hPa) Tendencia (hPa) Humedad (%)
2018-11-16 23:00:00 12 14 Este 23 Sudeste 0 -- -- 87
2018-11-16 22:00:00 11.3 12 Sudeste 17 Sudeste 0 -- -- 89
2018-11-16 21:00:00 12.1 10 Sudeste 15 Sudeste 0 -- -- 86
2018-11-16 20:00:00 12.8 12 Sudeste 22 Sudeste 0 -- -- 85
2018-11-16 19:00:00 13.2 18 Sudeste 22 Sudeste 0 -- -- 85
2018-11-16 18:00:00 15 18 Sudeste 26 Sudeste 0 -- -- 76
2018-11-16 17:00:00 16.7 14 Sudeste 22 Este 0 -- -- 70
2018-11-16 16:00:00 17.1 19 Sur 27 Sur 0 -- -- 67
2018-11-16 15:00:00 17.5 21 Sudeste 28 Sudeste 0 -- -- 62
2018-11-16 14:00:00 16 15 Este 25 Sudeste 0 -- -- 70
2018-11-16 13:00:00 15.1 13 Este 23 Este 0 -- -- 78
2018-11-16 12:00:00 15.6 14 Este 31 Este 0 -- -- 79
2018-11-16 11:00:00 13.6 19 Este 29 Sudeste 0 -- -- 87
2018-11-16 10:00:00 12.7 22 Sudeste 29 Sudeste 0 -- -- 88
2018-11-16 09:00:00 10.3 15 Este 22 Sudeste 0 -- -- 91
2018-11-16 08:00:00 10.1 18 Sudeste 26 Sudeste 0 -- -- 92
2018-11-16 07:00:00 10.4 21 Sudeste 29 Sudeste 0 -- -- 91
2018-11-16 06:00:00 10.8 20 Este 25 Este 0 -- -- 90
2018-11-16 05:00:00 11.2 18 Este 23 Este 0 -- -- 90
2018-11-16 04:00:00 11.4 13 Sudeste 17 Sudeste 0 -- -- 90
2018-11-16 03:00:00 11.3 12 Este 18 Este 0 -- -- 89
2018-11-16 02:00:00 11.7 5 Sudeste 6 Sudeste 0 -- -- 86
2018-11-16 01:00:00 11.7 3 Sudeste 8 Sur 0 -- -- 86
2018-11-16 00:00:00 12.2 0 Calma 15 Sudeste 0 -- -- 83
2018-11-15 23:00:00 12.8 11 Sudeste 14 Sudeste 0 -- -- 80
2018-11-15 22:00:00 12.6 12 Este 18 Este 0 -- -- 84
2018-11-15 21:00:00 12.7 15 Este 17 Este 0 -- -- 83
2018-11-15 20:00:00 13 12 Este 15 Este 0 -- -- 87
2018-11-15 19:00:00 13.4 14 Este 28 Este 0 -- -- 86
2018-11-15 18:00:00 14.4 5 Este 17 Sur 0 -- -- 77
2018-11-15 17:00:00 14.6 13 Sur 24 Sur 0 -- -- 76
2018-11-15 16:00:00 17.4 8 Sudeste 12 Sudeste 0 -- -- 64
2018-11-15 15:00:00 18.5 8 Este 13 Sudeste 0 -- -- 59
2018-11-15 14:00:00 18.1 7 Sur 15 Sudeste 0 -- -- 60
2018-11-15 13:00:00 18 10 Sudeste 18 Este 0 -- -- 62
2018-11-15 12:00:00 16.8 12 Sudeste 20 Sudeste 0 -- -- 70
2018-11-15 11:00:00 15.4 11 Sudeste 18 Este 0 -- -- 79
2018-11-15 10:00:00 13.5 14 Sudeste 22 Este 0 -- -- 85
2018-11-15 09:00:00 11.5 17 Sudeste 27 Este 0 -- -- 90
2018-11-15 08:00:00 11.2 20 Este 28 Este 0 -- -- 90
2018-11-15 07:00:00 11 21 Sudeste 25 Sudeste 0 -- -- 90
2018-11-15 06:00:00 11.9 14 Este 21 Sudeste 0 -- -- 87
2018-11-15 05:00:00 11.8 16 Sudeste 23 Sudeste 0 -- -- 87
2018-11-15 04:00:00 12.1 13 Este 21 Sudeste 0 -- -- 87
2018-11-15 03:00:00 11.9 15 Sudeste 25 Sudeste 0 -- -- 89
2018-11-15 02:00:00 12.2 17 Sudeste 24 Sudeste 0 -- -- 88
2018-11-15 01:00:00 13.4 19 Sudeste 26 Sudeste 0 -- -- 82
2018-11-15 00:00:00 13.1 18 Sudeste 22 Este 0 -- -- 89
2018-11-14 23:00:00 13 12 Sudeste 18 Este 0 -- -- 90
2018-11-14 22:00:00 12.7 12 Este 16 Este 0 -- -- 92
2018-11-14 21:00:00 12.8 13 Este 17 Este 0 -- -- 92
2018-11-14 20:00:00 13.1 15 Este 28 Este 0.8 -- -- 93
2018-11-14 19:00:00 14 15 Nordeste 29 Este 1.4 -- -- 91
2018-11-14 18:00:00 17.3 9 Nordeste 18 Nordeste 0 -- -- 74
2018-11-14 17:00:00 17.6 4 Este 13 Sudeste 0 -- -- 68
2018-11-14 16:00:00 17.8 8 Este 19 Sudeste 0 -- -- 63
2018-11-14 15:00:00 18.5 13 Sudeste 22 Este 0 -- -- 61
2018-11-14 14:00:00 17.7 12 Este 25 Sudeste 0 -- -- 68
2018-11-14 13:00:00 16.3 19 Este 28 Sudeste 0 -- -- 71
2018-11-14 12:00:00 16 13 Este 21 Este 0 -- -- 77
2018-11-14 11:00:00 13.1 15 Este 22 Este 0 -- -- 85
2018-11-14 10:00:00 12.7 16 Este 23 Este 0 -- -- 89
2018-11-14 09:00:00 11.1 18 Este 25 Este 0 -- -- 93
2018-11-14 08:00:00 11.8 19 Este 27 Este 0.2 -- -- 87
2018-11-14 07:00:00 11.2 17 Este 21 Este 0 -- -- 95
2018-11-14 06:00:00 10.1 12 Este 13 Este 0 -- -- 97
2018-11-14 05:00:00 10 11 Nordeste 13 Este 0 -- -- 96
2018-11-14 04:00:00 10.8 13 Este 17 Este 0 -- -- 96
2018-11-14 03:00:00 10.4 9 Este 15 Este 0 -- -- 94
2018-11-14 02:00:00 10.8 8 Este 10 Este 0 -- -- 97
2018-11-14 01:00:00 10.4 8 Nordeste 10 Nordeste 0 -- -- 97
2018-11-14 00:00:00 10.3 8 Nordeste 12 Norte 0 -- -- 97
2018-11-13 23:00:00 11.3 5 Noroeste 6 Noroeste 0 -- -- 95
2018-11-13 22:00:00 11.5 4 Sur 10 Nordeste 0 -- -- 95
2018-11-13 21:00:00 11.6 7 Nordeste 14 Nordeste 0 -- -- 94
2018-11-13 20:00:00 12.2 10 Norte 19 Norte 0 -- -- 93
2018-11-13 19:00:00 13.3 10 Norte 19 Nordeste 0 -- -- 90
2018-11-13 18:00:00 14.6 14 Nordeste 18 Nordeste 0 -- -- 86
2018-11-13 17:00:00 16.3 11 Norte 16 Nordeste 0 -- -- 79
2018-11-13 16:00:00 17.1 9 Nordeste 19 Nordeste 0 -- -- 75
2018-11-13 15:00:00 16.5 12 Nordeste 23 Nordeste 0 -- -- 75
2018-11-13 14:00:00 15.8 9 Nordeste 16 Norte 0 -- -- 80
2018-11-13 13:00:00 14.8 4 Norte 10 Norte 0 -- -- 82
2018-11-13 12:00:00 12.2 4 Nordeste 15 Nordeste 0 -- -- 92
2018-11-13 11:00:00 11.3 9 Nordeste 15 Este 0 -- -- 97
2018-11-13 10:00:00 10.6 6 Nordeste 17 Nordeste 0 -- -- 98
2018-11-13 09:00:00 9.9 4 Este 14 Nordeste 0 -- -- 98
2018-11-13 08:00:00 9.5 8 Nordeste 12 Nordeste 0 -- -- 98
2018-11-13 07:00:00 9.8 10 Nordeste 17 Nordeste 0 -- -- 98
2018-11-13 06:00:00 10 9 Nordeste 18 Nordeste 0 -- -- 98
2018-11-13 05:00:00 10.1 12 Nordeste 16 Nordeste 0 -- -- 98
2018-11-13 04:00:00 9.9 8 Norte 10 Norte 0 -- -- 98
2018-11-13 03:00:00 10 3 Noroeste 5 Norte 0 -- -- 98
2018-11-13 02:00:00 9.9 2 Nordeste 9 Nordeste 0 -- -- 98
2018-11-13 01:00:00 10.2 8 Este 12 Este 0 -- -- 98
2018-11-13 00:00:00 10.2 8 Nordeste 14 Nordeste 0 -- -- 98
2018-11-12 23:00:00 10.4 11 Norte 16 Norte 0 -- -- 97
2018-11-12 22:00:00 10.3 8 Nordeste 13 Nordeste 0 -- -- 97
2018-11-12 21:00:00 10.8 10 Nordeste 14 Norte 0 -- -- 96
2018-11-12 20:00:00 10.9 4 Nordeste 11 Sudeste 1 -- -- 96
2018-11-12 19:00:00 11.1 10 Sudeste 13 Sudeste 0.2 -- -- 95
2018-11-12 18:00:00 11.4 11 Sur 14 Sur 0.4 -- -- 93
2018-11-12 17:00:00 12.5 11 Sur 13 Sur 0 -- -- 85
2018-11-12 16:00:00 13.3 11 Sur 21 Sudoeste 0 -- -- 80
2018-11-12 15:00:00 13.9 12 Sur 20 Sudeste 0 -- -- 76
2018-11-12 14:00:00 13 15 Sur 22 Sudeste 0 -- -- 81
2018-11-12 13:00:00 12 18 Sur 31 Sur 0 -- -- 84
2018-11-12 12:00:00 11.5 15 Sudeste 22 Sudeste 0 -- -- 90
2018-11-12 11:00:00 10.7 15 Sudeste 30 Sudeste 0 -- -- 91
2018-11-12 10:00:00 10.8 26 Sudeste 37 Sudeste 0 -- -- 93
2018-11-12 09:00:00 11.4 14 Este 28 Sudeste 0.2 -- -- 97
2018-11-12 08:00:00 11.4 12 Este 19 Este 0.4 -- -- 97
2018-11-12 07:00:00 11.1 8 Sudoeste 18 Sudeste 0.8 -- -- 97
2018-11-12 06:00:00 11.1 14 Sudeste 23 Sur 0 -- -- 96
2018-11-12 05:00:00 11.2 19 Sur 35 Sudeste 0.2 -- -- 95
2018-11-12 04:00:00 11.8 32 Sudeste 38 Sudeste 0 -- -- 92
2018-11-12 03:00:00 11.8 23 Sur 46 Sudeste 0 -- -- 93
2018-11-12 02:00:00 12 34 Sudeste 42 Sudeste 1 -- -- 93
2018-11-12 01:00:00 11.6 19 Sudeste 31 Sudeste 0.2 -- -- 96
2018-11-12 00:00:00 10.7 18 Sudeste 26 Sudeste 2.2 -- -- 96
2018-11-11 23:00:00 10.4 8 Noroeste 37 Sur 3.8 -- -- 95
2018-11-11 22:00:00 12.6 31 Sur 41 Sur 0 -- -- 87
2018-11-11 21:00:00 12.7 23 Sur 41 Sur 0 -- -- 85
2018-11-11 20:00:00 13.3 24 Sur 33 Sur 0 -- -- 84
2018-11-11 19:00:00 13.8 25 Sur 36 Sur 0 -- -- 83
2018-11-11 18:00:00 14.7 30 Sur 43 Sur 0 -- -- 77
2018-11-11 17:00:00 16.2 30 Sur 46 Sur 0 -- -- 77
2018-11-11 16:00:00 16.8 28 Sur 44 Sur 0 -- -- 74
2018-11-11 15:00:00 16.7 26 Sur 37 Sur 0 -- -- 79
2018-11-11 14:00:00 15.5 28 Sur 41 Sur 0 -- -- 83
2018-11-11 13:00:00 15.6 26 Sur 33 Sur 0 -- -- 87
2018-11-11 12:00:00 15.2 19 Sur 30 Sudeste 0 -- -- 85
2018-11-11 11:00:00 14.1 22 Sudeste 32 Sur 0 -- -- 93
2018-11-11 10:00:00 14.2 21 Sudeste 25 Sudeste 0 -- -- 91
2018-11-11 09:00:00 12.8 15 Sudeste 22 Sudeste 0 -- -- 95
2018-11-11 08:00:00 12.5 10 Sudeste 15 Sur 0 -- -- 94
2018-11-11 07:00:00 12.7 9 Sudoeste 13 Sudoeste 0 -- -- 94
2018-11-11 06:00:00 12.9 6 Sudoeste 17 Sudoeste 0 -- -- 93
2018-11-11 05:00:00 12.7 11 Sur 15 Sudoeste 0 -- -- 93
2018-11-11 04:00:00 12.8 9 Sudoeste 15 Sudoeste 0 -- -- 94
2018-11-11 03:00:00 12.8 12 Sur 18 Sudoeste 0 -- -- 95
2018-11-11 02:00:00 13 12 Sudoeste 22 Sudoeste 0 -- -- 94
2018-11-11 01:00:00 12.8 16 Sudoeste 23 Sudoeste 0.2 -- -- 96
2018-11-11 00:00:00 13.4 18 Sudoeste 25 Sudoeste 0 -- -- 95
2018-11-10 23:00:00 13.4 20 Sudoeste 28 Sur 0 -- -- 93
2018-11-10 22:00:00 13.6 19 Sur 27 Sudoeste 0 -- -- 92
2018-11-10 21:00:00 13.6 20 Sur 31 Sur 0 -- -- 91
2018-11-10 20:00:00 13.5 20 Sur 27 Sur 0 -- -- 90
2018-11-10 19:00:00 13.4 20 Sur 32 Sudoeste 0 -- -- 90
2018-11-10 18:00:00 13.8 20 Sur 35 Sudoeste 0 -- -- 88
2018-11-10 17:00:00 14.3 26 Sudoeste 35 Sudoeste 0 -- -- 83
2018-11-10 16:00:00 14.8 27 Sudoeste 44 Sudoeste 0 -- -- 82
2018-11-10 15:00:00 15.7 32 Sudoeste 44 Sudoeste 0 -- -- 79
2018-11-10 14:00:00 14.8 36 Sudoeste 49 Sudoeste 0 -- -- 78
2018-11-10 13:00:00 14.2 36 Sudoeste 48 Sudoeste 0 -- -- 79
2018-11-10 12:00:00 13.5 34 Sudoeste 50 Sudoeste 0 -- -- 80
2018-11-10 11:00:00 12.4 24 Sudoeste 33 Sudoeste 0 -- -- 84
2018-11-10 10:00:00 12 22 Sudoeste 34 Sudoeste 0 -- -- 85
2018-11-10 09:00:00 11.4 24 Sudoeste 31 Sudoeste 0 -- -- 88
2018-11-10 08:00:00 11.1 24 Sudoeste 32 Sudoeste 0 -- -- 89
2018-11-10 07:00:00 10.6 24 Sudoeste 30 Sudoeste 0 -- -- 91
2018-11-10 06:00:00 10.5 15 Sudoeste 25 Sudoeste 0 -- -- 90
2018-11-10 05:00:00 10.4 10 Sudoeste 16 Sudoeste 0 -- -- 90
2018-11-10 04:00:00 10.5 13 Sudoeste 22 Sudoeste 0 -- -- 88
2018-11-10 03:00:00 10.1 19 Sudoeste 24 Sudoeste 0 -- -- 89
2018-11-10 02:00:00 9.5 11 Sudoeste 15 Sudoeste 0 -- -- 89
2018-11-10 01:00:00 10.2 9 Sudoeste 21 Sudoeste 0 -- -- 85
2018-11-10 00:00:00 10.1 17 Sudoeste 24 Sudoeste 0 -- -- 86
2018-11-09 23:00:00 9.8 16 Sudoeste 22 Sudoeste 0 -- -- 85
2018-11-09 22:00:00 10.7 19 Sudoeste 25 Sudoeste 0 -- -- 81
2018-11-09 21:00:00 10.1 9 Sudoeste 13 Sudoeste 0 -- -- 83
2018-11-09 20:00:00 9.9 7 Sur 13 Sudoeste 0 -- -- 82
2018-11-09 19:00:00 10.7 10 Sudoeste 17 Oeste 0 -- -- 79
2018-11-09 18:00:00 11.5 13 Oeste 30 Oeste 0 -- -- 73
2018-11-09 17:00:00 12.1 19 Oeste 32 Oeste 0 -- -- 68
2018-11-09 16:00:00 12.5 21 Oeste 31 Oeste 0 -- -- 65
2018-11-09 15:00:00 13.1 15 Oeste 28 Oeste 0 -- -- 64
2018-11-09 14:00:00 12 16 Oeste 28 Oeste 0 -- -- 68
2018-11-09 13:00:00 11.6 19 Oeste 26 Oeste 0 -- -- 70
2018-11-09 12:00:00 10.2 17 Noroeste 23 Noroeste 0 -- -- 86
2018-11-09 11:00:00 8.7 10 Noroeste 17 Oeste 0 -- -- 95
2018-11-09 10:00:00 7.3 6 Oeste 12 Oeste 0 -- -- 99
2018-11-09 09:00:00 5.8 5 Sudoeste 8 Oeste 0 -- -- 99
2018-11-09 08:00:00 4.9 5 Noroeste 14 Oeste 0 -- -- 98
2018-11-09 07:00:00 5.1 8 Oeste 11 Sudoeste 0.2 -- -- 98
2018-11-09 06:00:00 5.3 11 Oeste 18 Oeste 0 -- -- 97
2018-11-09 05:00:00 5.9 11 Oeste 19 Oeste 0 -- -- 98
2018-11-09 04:00:00 5.9 6 Noroeste 17 Oeste 0 -- -- 98
2018-11-09 03:00:00 6.2 12 Oeste 21 Oeste 0 -- -- 98
2018-11-09 02:00:00 6 15 Oeste 18 Sudoeste 0 -- -- 97
2018-11-09 01:00:00 6.6 13 Oeste 19 Oeste 0 -- -- 97
2018-11-09 00:00:00 6.9 16 Oeste 20 Oeste 0 -- -- 96
2018-11-08 23:00:00 7.7 13 Oeste 26 Oeste 0 -- -- 95
2018-11-08 22:00:00 8.4 17 Oeste 23 Oeste 0 -- -- 94
2018-11-08 21:00:00 8.4 12 Oeste 25 Oeste 0 -- -- 94
2018-11-08 20:00:00 8.7 21 Oeste 71 Oeste 0.2 -- -- 91
2018-11-08 19:00:00 11 26 Oeste 39 Oeste 0 -- -- 86
2018-11-08 18:00:00 11.5 28 Oeste 41 Oeste 0 -- -- 85
2018-11-08 17:00:00 13.1 30 Oeste 45 Sudoeste 0 -- -- 79
2018-11-08 16:00:00 13.9 29 Oeste 42 Sudoeste 0 -- -- 74
2018-11-08 15:00:00 13.8 28 Oeste 41 Oeste 0 -- -- 75
2018-11-08 14:00:00 13.1 30 Oeste 40 Sudoeste 0.2 -- -- 85
2018-11-08 13:00:00 12 21 Oeste 34 Oeste 0 -- -- 94
2018-11-08 12:00:00 13.2 21 Sur 30 Sur 0 -- -- 91
2018-11-08 11:00:00 12.7 19 Sur 26 Sur 0 -- -- 94
2018-11-08 10:00:00 11.6 12 Sudeste 17 Sudeste 0 -- -- 94
2018-11-08 09:00:00 10.8 14 Sudeste 22 Sudeste 0.4 -- -- 96
2018-11-08 08:00:00 10.2 16 Sudeste 23 Sudeste 0 -- -- 95
2018-11-08 07:00:00 10.4 14 Sudeste 18 Sur 0 -- -- 93
2018-11-08 06:00:00 10.6 9 Sudeste 19 Sur 0 -- -- 92
2018-11-08 05:00:00 10.5 15 Sur 23 Sudeste 0 -- -- 93
2018-11-08 04:00:00 10.4 17 Sudeste 24 Sur 0 -- -- 93
2018-11-08 03:00:00 10.2 21 Sudeste 26 Sudeste 0 -- -- 94
2018-11-08 02:00:00 10.4 13 Sudeste 18 Sur 0 -- -- 92
2018-11-08 01:00:00 9.9 13 Sudeste 18 Sudeste 0 -- -- 93
2018-11-08 00:00:00 10.3 10 Sudeste 16 Sudeste 0 -- -- 91
2018-11-07 23:00:00 10.1 13 Sudeste 20 Sudeste 0 -- -- 91
2018-11-07 22:00:00 9.9 15 Sudeste 18 Sudeste 0 -- -- 81
2018-11-07 21:00:00 10.4 6 Sudeste 10 Sudeste 0 -- -- 80
2018-11-07 20:00:00 11.2 6 Sudeste 9 Sudeste 0 -- -- 76
2018-11-07 19:00:00 12 7 Sudoeste 11 Sudoeste 0 -- -- 74
2018-11-07 18:00:00 13.4 10 Oeste 20 Oeste 0 -- -- 69
2018-11-07 17:00:00 14.4 14 Oeste 23 Oeste 0 -- -- 61
2018-11-07 16:00:00 14.7 17 Oeste 31 Oeste 0 -- -- 64
2018-11-07 15:00:00 14.6 18 Oeste 30 Oeste 0 -- -- 65
2018-11-07 14:00:00 14.1 19 Oeste 28 Oeste 0 -- -- 72
2018-11-07 13:00:00 13 15 Oeste 22 Oeste 0 -- -- 82
2018-11-07 12:00:00 11.9 12 Oeste 23 Noroeste 0 -- -- 87
2018-11-07 11:00:00 11 11 Oeste 28 Oeste 0 -- -- 94
2018-11-07 10:00:00 10.8 15 Oeste 32 Oeste 0 -- -- 97
2018-11-07 09:00:00 10.9 17 Sudoeste 37 Sudoeste 0.2 -- -- 96
2018-11-07 08:00:00 11.2 31 Sudoeste 45 Sur 0 -- -- 92
2018-11-07 07:00:00 10.8 28 Sur 44 Sudoeste 0 -- -- 92
2018-11-07 06:00:00 11 25 Sudoeste 34 Sudoeste 0 -- -- 90
2018-11-07 05:00:00 11.2 26 Sur 38 Sur 0 -- -- 86
2018-11-07 04:00:00 10.4 25 Sur 35 Sudoeste 0 -- -- 92
2018-11-07 03:00:00 10.9 27 Sur 39 Sur 0 -- -- 87
2018-11-07 02:00:00 10.7 24 Sur 35 Sudoeste 0 -- -- 86
2018-11-07 01:00:00 10.5 21 Sur 34 Sur 0 -- -- 86
2018-11-07 00:00:00 10.4 17 Sur 30 Sur 0 -- -- 84
2018-11-06 23:00:00 10.4 21 Sur 31 Sudoeste 0 -- -- 84
2018-11-06 22:00:00 10.6 22 Sur 28 Sur 0 -- -- 84
2018-11-06 21:00:00 10.7 16 Sur 23 Sur 0 -- -- 83
2018-11-06 20:00:00 10.9 15 Sur 27 Sur 0 -- -- 81
2018-11-06 19:00:00 11.1 19 Sur 30 Sudoeste 0 -- -- 79
2018-11-06 18:00:00 11.6 18 Sudoeste 28 Sudoeste 0 -- -- 75
2018-11-06 17:00:00 12.6 18 Sudoeste 29 Sudoeste 0 -- -- 69
2018-11-06 16:00:00 13.5 25 Sudoeste 34 Sudoeste 0 -- -- 67
2018-11-06 15:00:00 12.7 22 Sudoeste 28 Sudoeste 0 -- -- 69
2018-11-06 14:00:00 11.9 16 Sudoeste 30 Sudoeste 0 -- -- 71
2018-11-06 13:00:00 12.3 20 Sudoeste 30 Sudoeste 0 -- -- 73
2018-11-06 12:00:00 11.4 20 Sudoeste 30 Sudoeste 0 -- -- 76
2018-11-06 11:00:00 10.1 13 Oeste 24 Sudoeste 0 -- -- 86
2018-11-06 10:00:00 8.2 16 Sudoeste 23 Sudoeste 0 -- -- 98
2018-11-06 09:00:00 6.7 5 Sur 11 Oeste 0 -- -- 98
2018-11-06 08:00:00 6.5 5 Sudoeste 13 Sudoeste 0 -- -- 98
2018-11-06 07:00:00 6.2 5 Sudoeste 10 Sudoeste 0 -- -- 98
2018-11-06 06:00:00 5.9 7 Sur 12 Sudoeste 0 -- -- 97
2018-11-06 05:00:00 6.5 8 Sudoeste 15 Sudoeste 0 -- -- 97
2018-11-06 04:00:00 6.4 13 Sudoeste 20 Oeste 0 -- -- 97
2018-11-06 03:00:00 6.1 12 Sudoeste 18 Sudoeste 0 -- -- 97
2018-11-06 02:00:00 5.4 15 Oeste 17 Oeste 0 -- -- 95
2018-11-06 01:00:00 5.9 12 Oeste 17 Oeste 0 -- -- 96
2018-11-06 00:00:00 5.5 15 Sudoeste 19 Sudoeste 0 -- -- 95
2018-11-05 23:00:00 6 14 Sudoeste 17 Sudoeste 0 -- -- 93
2018-11-05 22:00:00 6.2 8 Sudoeste 17 Sudoeste 0 -- -- 91
2018-11-05 21:00:00 6.8 13 Oeste 30 Oeste 0 -- -- 90
2018-11-05 20:00:00 7.4 16 Oeste 27 Oeste 0 -- -- 88
2018-11-05 19:00:00 7.3 16 Oeste 27 Oeste 0 -- -- 90
2018-11-05 18:00:00 7.8 17 Oeste 54 Noroeste 0.8 -- -- 89
2018-11-05 17:00:00 10.3 27 Oeste 47 Oeste 0 -- -- 77
2018-11-05 16:00:00 10.1 28 Noroeste 46 Oeste 0 -- -- 73
2018-11-05 15:00:00 9.8 33 Oeste 47 Oeste 0 -- -- 82
2018-11-05 14:00:00 9.3 27 Noroeste 42 Oeste 0 -- -- 86
2018-11-05 13:00:00 9.7 31 Oeste 48 Oeste 0 -- -- 77
2018-11-05 12:00:00 9.3 29 Oeste 44 Oeste 0 -- -- 81
2018-11-05 11:00:00 9 29 Oeste 39 Oeste 0 -- -- 85
2018-11-05 10:00:00 8.3 26 Oeste 39 Oeste 0 -- -- 89
2018-11-05 09:00:00 7 25 Oeste 36 Oeste 0 -- -- 93
2018-11-05 08:00:00 7 30 Oeste 46 Oeste 0.2 -- -- 91
2018-11-05 07:00:00 7.5 18 Oeste 35 Oeste 0 -- -- 94
2018-11-05 06:00:00 8 19 Oeste 32 Oeste 0 -- -- 97
2018-11-05 05:00:00 8.5 23 Oeste 42 Oeste 0.2 -- -- 97
2018-11-05 04:00:00 9.1 25 Oeste 49 Oeste 0.4 -- -- 97
2018-11-05 03:00:00 10.4 32 Oeste 51 Oeste 6.6 -- -- 96
2018-11-05 02:00:00 10.8 26 Sur 45 Sur 0 -- -- 95
2018-11-05 01:00:00 10.7 35 Sur 46 Sur 0.2 -- -- 93
2018-11-05 00:00:00 10.1 26 Sur 39 Sur 1.8 -- -- 92
2018-11-04 23:00:00 10.9 24 Sur 37 Sur 0 -- -- 83
2018-11-04 22:00:00 10.7 19 Sur 27 Sur 0 -- -- 84
2018-11-04 21:00:00 10.9 19 Sur 32 Sudoeste 0 -- -- 83
2018-11-04 20:00:00 11.2 27 Sudoeste 40 Sudoeste 0 -- -- 81
2018-11-04 19:00:00 11.2 14 Sudoeste 26 Sudoeste 0 -- -- 84
2018-11-04 18:00:00 11.5 20 Sudoeste 37 Sudoeste 0 -- -- 83
2018-11-04 17:00:00 12.3 27 Sudoeste 35 Sudoeste 0 -- -- 82
2018-11-04 16:00:00 13 24 Sudoeste 33 Sudoeste 0 -- -- 79
2018-11-04 15:00:00 13.9 22 Sudoeste 33 Sudoeste 0 -- -- 78
2018-11-04 14:00:00 12.7 24 Sudoeste 35 Sudoeste 0 -- -- 84
2018-11-04 13:00:00 13.8 28 Sudoeste 35 Sudoeste 0 -- -- 87
2018-11-04 12:00:00 11.7 3 Sudoeste 6 Oeste 0 -- -- 99
2018-11-04 11:00:00 9.2 0 Calma 5 Noroeste 0 -- -- 99
2018-11-04 10:00:00 8 0 Calma 6 Sudoeste 0 -- -- 99
2018-11-04 09:00:00 7.8 4 Sudoeste 8 Sudoeste 0 -- -- 98
2018-11-04 08:00:00 7.8 4 Sudoeste 6 Sudoeste 0 -- -- 98
2018-11-04 07:00:00 7.5 4 Sudoeste 6 Sudoeste 0 -- -- 98
2018-11-04 06:00:00 7.8 0 Calma 4 Noroeste 0.2 -- -- 98
2018-11-04 05:00:00 8.6 3 Sudoeste 5 Sudoeste 0 -- -- 97
2018-11-04 04:00:00 9.2 0 Calma 8 Noroeste 0 -- -- 97
2018-11-04 03:00:00 10.3 3 Sudoeste 6 Sudoeste 0 -- -- 96
2018-11-04 02:00:00 10.4 5 Sudoeste 8 Sudoeste 0.2 -- -- 96
2018-11-04 01:00:00 10.6 4 Sur 8 Sudoeste 0 -- -- 96
2018-11-04 00:00:00 10.6 5 Sudoeste 8 Sudoeste 0 -- -- 96
2018-11-03 23:00:00 11.1 4 Sudoeste 5 Sudoeste 0 -- -- 96
2018-11-03 22:00:00 11.2 4 Sur 5 Sur 0 -- -- 96
2018-11-03 21:00:00 11.7 4 Oeste 8 Noroeste 0 -- -- 95
2018-11-03 20:00:00 12.2 5 Noroeste 13 Noroeste 0 -- -- 92
2018-11-03 19:00:00 13 15 Noroeste 18 Noroeste 0 -- -- 88
2018-11-03 18:00:00 15.3 16 Noroeste 20 Noroeste 0 -- -- 80
2018-11-03 17:00:00 17.1 12 Noroeste 17 Norte 0 -- -- 62
2018-11-03 16:00:00 17.2 5 Oeste 18 Noroeste 0 -- -- 70
2018-11-03 15:00:00 16.5 10 Noroeste 20 Noroeste 0 -- -- 73
2018-11-03 14:00:00 16.4 10 Noroeste 16 Noroeste 0 -- -- 77
2018-11-03 13:00:00 15.5 8 Noroeste 13 Noroeste 0 -- -- 78
2018-11-03 12:00:00 14 8 Noroeste 13 Noroeste 0 -- -- 89
2018-11-03 11:00:00 12.8 3 Noroeste 6 Norte 0 -- -- 98
2018-11-03 10:00:00 11.3 0 Calma 3 Nordeste 0 -- -- 99
2018-11-03 09:00:00 10.6 2 Sudeste 4 Sudoeste 0 -- -- 99
2018-11-03 08:00:00 9.9 3 Sur 5 Sudoeste 0 -- -- 98
2018-11-03 07:00:00 9.5 4 Sudoeste 6 Sudoeste 0 -- -- 98
2018-11-03 06:00:00 8.6 4 Sur 6 Sudoeste 0 -- -- 98
2018-11-03 05:00:00 9 5 Oeste 9 Oeste 0 -- -- 98
2018-11-03 04:00:00 9.8 6 Sudoeste 8 Sudoeste 0.2 -- -- 98
2018-11-03 03:00:00 9.7 5 Sudoeste 10 Sudoeste 0 -- -- 98
2018-11-03 02:00:00 10.1 7 Sudoeste 9 Sudoeste 0 -- -- 97
2018-11-03 01:00:00 10.4 6 Sudoeste 10 Sudoeste 0 -- -- 97
2018-11-03 00:00:00 10.8 4 Sudoeste 8 Oeste 0 -- -- 97
2018-11-02 23:00:00 11 6 Oeste 9 Oeste 0 -- -- 96
2018-11-02 22:00:00 11.6 8 Oeste 10 Oeste 0 -- -- 95
2018-11-02 21:00:00 12.1 6 Oeste 10 Oeste 0 -- -- 93
2018-11-02 20:00:00 12.7 6 Oeste 13 Oeste 0 -- -- 91
2018-11-02 19:00:00 13.2 8 Noroeste 17 Oeste 0 -- -- 89
2018-11-02 18:00:00 14.6 13 Oeste 20 Oeste 0 -- -- 87
2018-11-02 17:00:00 15.6 15 Oeste 26 Oeste 0 -- -- 84
2018-11-02 16:00:00 14.9 20 Oeste 32 Oeste 0 -- -- 84
2018-11-02 15:00:00 14.7 23 Oeste 31 Noroeste 0 -- -- 85
2018-11-02 14:00:00 13.5 22 Oeste 32 Oeste 0 -- -- 92
2018-11-02 13:00:00 12.8 19 Oeste 35 Noroeste 0 -- -- 98
2018-11-02 12:00:00 12.1 14 Oeste 22 Noroeste 0 -- -- 98
2018-11-02 11:00:00 11.4 17 Noroeste 22 Oeste 0 -- -- 98
2018-11-02 10:00:00 10.6 14 Oeste 21 Oeste 0 -- -- 98
2018-11-02 09:00:00 10 16 Oeste 23 Oeste 0 -- -- 98
2018-11-02 08:00:00 9.3 9 Oeste 24 Noroeste 0 -- -- 97
2018-11-02 07:00:00 9.3 11 Noroeste 18 Noroeste 0 -- -- 97
2018-11-02 06:00:00 8.5 9 Sudoeste 15 Sudoeste 0 -- -- 96
2018-11-02 05:00:00 8.2 8 Sudoeste 12 Sudoeste 0 -- -- 96
2018-11-02 04:00:00 7.7 9 Sudoeste 14 Sudoeste 0 -- -- 96
2018-11-02 03:00:00 8.1 9 Sudoeste 13 Sudoeste 0 -- -- 96
2018-11-02 02:00:00 8.2 8 Sudoeste 12 Sudoeste 0 -- -- 94
2018-11-02 01:00:00 8.4 9 Sudoeste 12 Sudoeste 0 -- -- 92
2018-11-02 00:00:00 8.4 5 Sudoeste 10 Sudoeste 0 -- -- 91
2018-11-01 23:00:00 8.7 5 Sudoeste 8 Sudoeste 0 -- -- 89
2018-11-01 22:00:00 9.1 6 Sudoeste 8 Sudoeste 0 -- -- 85
2018-11-01 21:00:00 9.3 7 Oeste 12 Oeste 0 -- -- 83
2018-11-01 20:00:00 10 10 Oeste 16 Noroeste 0 -- -- 82
2018-11-01 19:00:00 10.3 11 Noroeste 24 Oeste 0 -- -- 80
2018-11-01 18:00:00 12.8 20 Oeste 27 Oeste 0 -- -- 66
2018-11-01 17:00:00 13.8 19 Noroeste 27 Noroeste 0 -- -- 58
2018-11-01 16:00:00 13.1 17 Noroeste 26 Noroeste 0 -- -- 70
2018-11-01 15:00:00 13.4 15 Noroeste 28 Oeste 0 -- -- 66
2018-11-01 14:00:00 12.5 13 Oeste 24 Oeste 0 -- -- 74
2018-11-01 13:00:00 11.9 14 Noroeste 23 Noroeste 0 -- -- 74
2018-11-01 12:00:00 10.3 10 Oeste 16 Noroeste 0 -- -- 84
2018-11-01 11:00:00 8.2 6 Oeste 15 Oeste 0 -- -- 99
2018-11-01 10:00:00 6.8 8 Oeste 12 Oeste 0 -- -- 99
2018-11-01 09:00:00 5.3 6 Oeste 8 Oeste 0 -- -- 99
2018-11-01 08:00:00 4.2 4 Sudoeste 5 Sudoeste 0 -- -- 98
2018-11-01 07:00:00 4.4 0 Calma 9 Oeste 0 -- -- 98
2018-11-01 06:00:00 4.4 4 Sudoeste 6 Oeste 0 -- -- 99
2018-11-01 05:00:00 4.4 3 Noroeste 6 Oeste 0.2 -- -- 98
2018-11-01 04:00:00 3.8 2 Sudoeste 5 Sudoeste 0 -- -- 97
2018-11-01 03:00:00 4.1 3 Oeste 8 Noroeste 0 -- -- 97
2018-11-01 02:00:00 5.6 6 Norte 8 Norte 0 -- -- 97
2018-11-01 01:00:00 5.8 6 Norte 8 Norte 0 -- -- 95
2018-11-01 00:00:00 6.9 -- -- -- -- 0 -- -- 96
2018-10-31 23:00:00 7.3 5 Sudeste 8 Este 0 -- -- 96
2018-10-31 22:00:00 7.2 3 Nordeste 11 Nordeste 0 -- -- 97
2018-10-31 21:00:00 6.8 10 Nordeste 18 Este 0 -- -- 97
2018-10-31 20:00:00 6.7 14 Este 19 Este 0 -- -- 96
2018-10-31 19:00:00 7.2 12 Este 21 Sudeste 1.2 -- -- 95
2018-10-31 18:00:00 7.4 16 Sudeste 22 Sudeste 1.6 -- -- 94
2018-10-31 17:00:00 7.4 15 Sudeste 37 Sur 2.4 -- -- 92
2018-10-31 16:00:00 8.2 23 Sudeste 33 Sudeste 0.2 -- -- 82
2018-10-31 15:00:00 8.5 24 Sur 32 Sur 0 -- -- 85
2018-10-31 14:00:00 8.2 22 Sur 35 Sudoeste 0 -- -- 85
2018-10-31 13:00:00 9.1 21 Sudoeste 28 Sur 0 -- -- 79
2018-10-31 12:00:00 8.6 18 Sudoeste 29 Sudoeste 0 -- -- 83
2018-10-31 11:00:00 7.7 19 Sudoeste 34 Oeste 0 -- -- 88
2018-10-31 10:00:00 7.4 22 Oeste 29 Oeste 0 -- -- 95
2018-10-31 09:00:00 6.2 20 Oeste 28 Oeste 0 -- -- 97
2018-10-31 08:00:00 5.7 22 Oeste 31 Oeste 0 -- -- 96
2018-10-31 07:00:00 5.5 24 Oeste 37 Oeste 0 -- -- 96
2018-10-31 06:00:00 5.5 27 Oeste 43 Oeste 0 -- -- 96
2018-10-31 05:00:00 5.6 28 Oeste 38 Oeste 0 -- -- 95
2018-10-31 04:00:00 5.6 27 Oeste 38 Oeste 0 -- -- 94
2018-10-31 03:00:00 5.5 26 Oeste 36 Oeste 0 -- -- 94
2018-10-31 02:00:00 5.6 26 Oeste 33 Oeste 0 -- -- 94
2018-10-31 01:00:00 5.5 23 Oeste 39 Oeste 0 -- -- 94
2018-10-31 00:00:00 5.5 24 Oeste 34 Oeste 0 -- -- 94
2018-10-30 23:00:00 5.5 20 Oeste 34 Oeste 0 -- -- 94
2018-10-30 22:00:00 5.3 27 Oeste 35 Oeste 0 -- -- 93
2018-10-30 21:00:00 5.5 21 Oeste 36 Oeste 0 -- -- 92
2018-10-30 20:00:00 6 24 Oeste 39 Oeste 0.2 -- -- 88
2018-10-30 19:00:00 6.7 17 Oeste 49 Oeste 1.2 -- -- 92
2018-10-30 18:00:00 8.4 22 Oeste 39 Oeste 0 -- -- 78
2018-10-30 17:00:00 9.5 30 Oeste 41 Oeste 0 -- -- 72
2018-10-30 16:00:00 9.7 31 Oeste 40 Oeste 0 -- -- 75
2018-10-30 15:00:00 9.9 27 Oeste 38 Noroeste 0 -- -- 83
2018-10-30 14:00:00 10 30 Oeste 39 Oeste 0 -- -- 85
2018-10-30 13:00:00 9.5 19 Oeste 43 Oeste 1.2 -- -- 93
2018-10-30 12:00:00 10.3 21 Sudoeste 33 Sudoeste 0 -- -- 86
2018-10-30 11:00:00 10.1 19 Sudoeste 28 Sudoeste 0 -- -- 91
2018-10-30 10:00:00 9.4 14 Sur 22 Sur 0 -- -- 86
2018-10-30 09:00:00 8.4 13 Sur 39 Sudoeste 1.6 -- -- 92
2018-10-30 08:00:00 8.8 17 Sudoeste 31 Sur 3 -- -- 95
2018-10-30 07:00:00 8.6 22 Sur 33 Sur 0.2 -- -- 94
2018-10-30 06:00:00 8.4 26 Sur 38 Sur 0.4 -- -- 92
2018-10-30 05:00:00 8.1 24 Sur 37 Sur 0 -- -- 91
2018-10-30 04:00:00 7.8 29 Sudoeste 38 Sur 0.4 -- -- 91
2018-10-30 03:00:00 7.7 26 Sudoeste 40 Sudoeste 0 -- -- 88
2018-10-30 02:00:00 7.6 24 Sur 32 Sur 0 -- -- 88
2018-10-30 01:00:00 7.7 20 Sudoeste 29 Sudoeste 0 -- -- 83
2018-10-30 00:00:00 7.7 27 Sudoeste 37 Sudoeste 0 -- -- 81
2018-10-29 23:00:00 7.5 21 Sudoeste 30 Sudoeste 0 -- -- 80
2018-10-29 22:00:00 7.1 21 Sudoeste 29 Sudoeste 0 -- -- 79
2018-10-29 21:00:00 7.9 19 Sudoeste 25 Sudoeste 0 -- -- 70
2018-10-29 20:00:00 8.1 19 Oeste 27 Oeste 0 -- -- 65
2018-10-29 19:00:00 8.6 23 Oeste 43 Oeste 0 -- -- 61
2018-10-29 18:00:00 10 27 Oeste 48 Oeste 0 -- -- 58
2018-10-29 17:00:00 10.4 34 Oeste 49 Oeste 0 -- -- 52
2018-10-29 16:00:00 11.6 27 Oeste 48 Oeste 0 -- -- 42
2018-10-29 15:00:00 10.5 32 Oeste 46 Oeste 0 -- -- 49
2018-10-29 14:00:00 10.1 32 Oeste 46 Oeste 0 -- -- 56
2018-10-29 13:00:00 9.5 26 Oeste 39 Oeste 0 -- -- 59
2018-10-29 12:00:00 8.9 24 Oeste 35 Oeste 0 -- -- 60
2018-10-29 11:00:00 7 22 Noroeste 30 Oeste 0 -- -- 67
2018-10-29 10:00:00 4.9 15 Oeste 25 Oeste 0 -- -- 79
2018-10-29 09:00:00 2.4 15 Oeste 20 Oeste 0 -- -- 90
2018-10-29 08:00:00 0.9 13 Oeste 19 Oeste 0 -- -- 92
2018-10-29 07:00:00 0.8 14 Oeste 20 Oeste 0 -- -- 92
2018-10-29 06:00:00 1.5 11 Oeste 16 Oeste 0 -- -- 88
2018-10-29 05:00:00 1.5 10 Oeste 18 Oeste 0 -- -- 90
2018-10-29 04:00:00 2 10 Oeste 14 Oeste 0 -- -- 87
2018-10-29 03:00:00 2.6 8 Oeste 14 Oeste 0 -- -- 84
2018-10-29 02:00:00 3.5 9 Noroeste 14 Oeste 0 -- -- 80
2018-10-29 01:00:00 3.5 9 Oeste 17 Oeste 0 -- -- 80
2018-10-29 00:00:00 3.8 13 Oeste 17 Oeste 0 -- -- 77
2018-10-28 23:00:00 4.2 13 Noroeste 21 Noroeste 0 -- -- 75
2018-10-28 22:00:00 4.7 16 Noroeste 20 Noroeste 0 -- -- 72
2018-10-28 21:00:00 5.3 17 Noroeste 21 Noroeste 0 -- -- 69
2018-10-28 20:00:00 5.8 9 Noroeste 30 Noroeste 0 -- -- 67
2018-10-28 19:00:00 7.7 23 Noroeste 42 Noroeste 0 -- -- 57
2018-10-28 18:00:00 8.9 32 Noroeste 53 Noroeste 0 -- -- 51
2018-10-28 17:00:00 9.3 32 Noroeste 50 Norte 0 -- -- 49
2018-10-28 16:00:00 10.3 33 Norte 51 Noroeste 0 -- -- 48
2018-10-28 15:00:00 10 31 Noroeste 49 Noroeste 0 -- -- 52
2018-10-28 14:00:00 9.9 27 Noroeste 43 Noroeste 0 -- -- 53
2018-10-28 13:00:00 8.7 25 Noroeste 36 Norte 0 -- -- 63
2018-10-28 12:00:00 7.6 24 Norte 40 Norte 0 -- -- 67
2018-10-28 11:00:00 5.9 34 Noroeste 40 Noroeste 0 -- -- 74
2018-10-28 10:00:00 4.7 30 Noroeste 36 Noroeste 0 -- -- 79
2018-10-28 09:00:00 3.6 18 Noroeste 23 Noroeste 0 -- -- 88
2018-10-28 08:00:00 1.8 6 Noroeste 15 Noroeste 0 -- -- 95
2018-10-28 07:00:00 2.1 12 Noroeste 14 Noroeste 0 -- -- 95
2018-10-28 06:00:00 2.5 8 Oeste 14 Noroeste 0 -- -- 95
2018-10-28 05:00:00 3.3 14 Noroeste 23 Noroeste 0 -- -- 93
2018-10-28 04:00:00 3.4 10 Oeste 17 Oeste 0 -- -- 92
2018-10-28 03:00:00 3.6 9 Noroeste 22 Noroeste 0 -- -- 92
2018-10-28 02:00:00 4.3 17 Oeste 23 Oeste 0 -- -- 90
2018-10-28 01:00:00 5.6 15 Oeste 34 Oeste 0 -- -- 82
2018-10-28 00:00:00 6.5 24 Noroeste 37 Noroeste 0 -- -- 79
2018-10-27 23:00:00 7.2 26 Noroeste 39 Noroeste 0 -- -- 76
2018-10-27 22:00:00 8.3 27 Noroeste 42 Noroeste 0 -- -- 70
2018-10-27 21:00:00 9.1 32 Noroeste 42 Noroeste 0 -- -- 65
2018-10-27 20:00:00 10 23 Noroeste 42 Noroeste 0 -- -- 58
2018-10-27 19:00:00 11.4 31 Noroeste 52 Noroeste 0 -- -- 58
2018-10-27 18:00:00 12.3 37 Noroeste 51 Noroeste 0 -- -- 65
2018-10-27 17:00:00 13.2 38 Noroeste 47 Noroeste 0.2 -- -- 74
2018-10-27 16:00:00 14.6 33 Oeste 44 Oeste 0 -- -- 75
2018-10-27 15:00:00 13.9 27 Oeste 37 Oeste 0 -- -- 82
2018-10-27 14:00:00 12.9 26 Oeste 39 Oeste 0 -- -- 91
2018-10-27 13:00:00 11.4 28 Oeste 38 Oeste 0 -- -- 98
2018-10-27 12:00:00 12.6 21 Oeste 31 Oeste 0 -- -- 97
2018-10-27 11:00:00 12.9 20 Oeste 27 Oeste 0 -- -- 98
2018-10-27 10:00:00 12.3 12 Sudoeste 18 Sudoeste 0 -- -- 98
2018-10-27 09:00:00 12.1 13 Oeste 20 Oeste 0 -- -- 98
2018-10-27 08:00:00 12.5 13 Oeste 19 Oeste 0 -- -- 98
2018-10-27 07:00:00 12.7 16 Oeste 20 Oeste 0 -- -- 98
2018-10-27 06:00:00 12.5 11 Oeste 16 Oeste 0 -- -- 98
2018-10-27 05:00:00 12.7 10 Oeste 13 Oeste 0 -- -- 97
2018-10-27 04:00:00 13 5 Oeste 13 Oeste 0.2 -- -- 97
2018-10-27 03:00:00 13.1 10 Oeste 13 Oeste 1 -- -- 97
2018-10-27 02:00:00 13 11 Noroeste 18 Oeste 1.6 -- -- 96
2018-10-27 01:00:00 14.1 8 Oeste 9 Oeste 0.6 -- -- 97
2018-10-27 00:00:00 14 3 Noroeste 8 Oeste 0.4 -- -- 96
2018-10-26 23:00:00 13.9 6 Oeste 9 Oeste 0.2 -- -- 95
2018-10-26 22:00:00 14 6 Sudoeste -- -- 0 -- -- 94
2018-10-26 21:00:00 14.1 3 Sudoeste 4 Sudoeste 0 -- -- 93
2018-10-26 20:00:00 14.3 2 Sudoeste 9 Sudoeste 0 -- -- 92
2018-10-26 19:00:00 14.9 5 Sur 14 Sudeste 0 -- -- 90
2018-10-26 18:00:00 14.8 11 Sudeste 16 Sudeste 0 -- -- 90
2018-10-26 17:00:00 14.6 13 Sudeste 23 Sudeste 0 -- -- 92
2018-10-26 16:00:00 15.1 13 Este 18 Este 0.2 -- -- 93
2018-10-26 15:00:00 15 10 Sudeste 17 Sudeste 0.6 -- -- 92
2018-10-26 14:00:00 15.7 13 Sudeste 18 Sudeste 0 -- -- 84
2018-10-26 13:00:00 16.3 12 Sur 21 Sudeste 0 -- -- 80
2018-10-26 12:00:00 14.8 13 Sudeste 22 Este 0 -- -- 90
2018-10-26 11:00:00 13.4 16 Este 21 Este 0 -- -- 91
2018-10-26 10:00:00 13.6 9 Este 16 Sudeste 0 -- -- 88
2018-10-26 09:00:00 14.4 12 Sur 19 Sur 0 -- -- 81
2018-10-26 08:00:00 14.6 2 Sudeste 21 Sudeste 0.2 -- -- 82
2018-10-26 07:00:00 15.2 13 Sudeste 15 Sudeste 0.2 -- -- 81
2018-10-26 06:00:00 16.1 7 Sur 11 Este 0 -- -- 76
2018-10-26 05:00:00 16 6 Sudeste 8 Sur 0 -- -- 72
2018-10-26 04:00:00 16.4 6 Sudeste 11 Sudeste 0 -- -- 70
2018-10-26 03:00:00 16.4 2 Sur 12 Sudeste 0 -- -- 66
2018-10-26 02:00:00 16.3 4 Sudeste 5 Sudeste 0 -- -- 62
2018-10-26 01:00:00 16.4 3 Sudeste 7 Sudeste 0 -- -- 57
2018-10-26 00:00:00 16.5 5 Sudeste 10 Sudeste 0 -- -- 58
2018-10-25 23:00:00 16.3 8 Sudeste 13 Sudeste 0 -- -- 63
2018-10-25 22:00:00 16.7 12 Sudeste 15 Sudeste 0 -- -- 66
2018-10-25 21:00:00 17.3 13 Sudeste 15 Sudeste 0 -- -- 66
2018-10-25 20:00:00 18.4 11 Sudeste 15 Sudeste 0 -- -- 62
2018-10-25 19:00:00 20.2 14 Sur 20 Sur 0 -- -- 56
2018-10-25 18:00:00 21.8 8 Sudeste 17 Sur 0 -- -- 46
2018-10-25 17:00:00 23 8 Este 21 Sudeste 0 -- -- 47
2018-10-25 16:00:00 23.2 8 Este 21 Este 0 -- -- 42
2018-10-25 15:00:00 23.4 12 Sudeste 22 Sudeste 0 -- -- 39
2018-10-25 14:00:00 22.7 9 Sudeste 19 Este 0 -- -- 45
2018-10-25 13:00:00 21.9 12 Este 21 Este 0 -- -- 50
2018-10-25 12:00:00 20.9 11 Este 17 Este 0 -- -- 52
2018-10-25 11:00:00 19.3 8 Este 12 Este 0 -- -- 62
2018-10-25 10:00:00 16.4 8 Este 12 Este 0 -- -- 70
2018-10-25 09:00:00 15.1 7 Sudeste 15 Este 0 -- -- 68
2018-10-25 08:00:00 15.2 15 Este 17 Este 0 -- -- 67
2018-10-25 07:00:00 15.6 13 Este 15 Este 0 -- -- 67
2018-10-25 06:00:00 15.3 5 Sudeste 8 Nordeste 0 -- -- 69
2018-10-25 05:00:00 15 4 Nordeste 6 Este 0 -- -- 71
2018-10-25 04:00:00 16.1 0 Calma 4 Sudeste 0 -- -- 67
2018-10-25 03:00:00 16.1 3 Sur 5 Sudeste 0 -- -- 68
2018-10-25 02:00:00 16.2 4 Sudeste 5 Sudeste 0 -- -- 68
2018-10-25 01:00:00 15.9 4 Sudeste 6 Sudeste 0 -- -- 70
2018-10-25 00:00:00 16.2 5 Nordeste 8 Nordeste 0 -- -- 69
2018-10-24 23:00:00 16.2 6 Nordeste 17 Nordeste 0 -- -- 70
2018-10-24 22:00:00 16.7 13 Nordeste 17 Norte 0 -- -- 72
2018-10-24 21:00:00 17.3 13 Norte 17 Norte 0 -- -- 70
2018-10-24 20:00:00 18.5 11 Norte 13 Norte 0 -- -- 66
2018-10-24 19:00:00 21.3 4 Norte 18 Norte 0 -- -- 50
2018-10-24 18:00:00 23.1 8 Nordeste 14 Nordeste 0 -- -- 47
2018-10-24 17:00:00 23.6 11 Este 23 Este 0 -- -- 48
2018-10-24 16:00:00 22.1 8 Nordeste 20 Nordeste 0 -- -- 49
2018-10-24 15:00:00 23 10 Nordeste 20 Nordeste 0 -- -- 53
2018-10-24 14:00:00 22.2 9 Nordeste 22 Nordeste 0 -- -- 60
2018-10-24 13:00:00 20.8 9 Nordeste 17 Nordeste 0 -- -- 71
2018-10-24 12:00:00 19.4 9 Nordeste 15 Nordeste 0 -- -- 74
2018-10-24 11:00:00 18 3 Este 5 Sudeste 0 -- -- 86
2018-10-24 10:00:00 15.6 3 Este 5 Este 0 -- -- 97
2018-10-24 09:00:00 13.8 3 Sudeste 4 Sudeste 0 -- -- 96
2018-10-24 08:00:00 13.7 2 Noroeste 4 Norte 0 -- -- 97
2018-10-24 07:00:00 14 2 Sur -- -- 0 -- -- 96
2018-10-24 06:00:00 14.4 2 Este 6 Nordeste 0 -- -- 95
2018-10-24 05:00:00 13.9 6 Nordeste 7 Nordeste 0 -- -- 93
2018-10-24 04:00:00 15.4 0 Calma 2 Oeste 0 -- -- 91
2018-10-24 03:00:00 15.8 0 Calma 2 Sudoeste 0 -- -- 89
2018-10-24 02:00:00 15.6 0 Calma 6 Sur 0 -- -- 90
2018-10-24 01:00:00 15.7 2 Sur 5 Sur 0 -- -- 89
2018-10-24 00:00:00 16.2 3 Sudoeste 5 Noroeste 0 -- -- 86
2018-10-23 23:00:00 16 6 Noroeste 7 Noroeste 0 -- -- 86
2018-10-23 22:00:00 16.8 4 Noroeste 8 Noroeste 0 -- -- 87
2018-10-23 21:00:00 17 8 Noroeste 10 Noroeste 0 -- -- 86
2018-10-23 20:00:00 18.1 6 Oeste 8 Oeste 0 -- -- 78
2018-10-23 19:00:00 19.1 5 Sudoeste 17 Sudoeste 0 -- -- 75
2018-10-23 18:00:00 20.1 13 Sudoeste 18 Sudoeste 0 -- -- 70
2018-10-23 17:00:00 21.2 3 Este 8 Nordeste 0 -- -- 57
2018-10-23 16:00:00 21 4 Norte 15 Oeste 0 -- -- 60
2018-10-23 15:00:00 20.7 5 Oeste 16 Sudoeste 0 -- -- 64
2018-10-23 14:00:00 20.8 6 Sudoeste 23 Sur 0 -- -- 63
2018-10-23 13:00:00 19.8 10 Sudeste 22 Sudeste 0 -- -- 69
2018-10-23 12:00:00 18.9 14 Sur 19 Sudeste 0 -- -- 73
2018-10-23 11:00:00 17.1 14 Este 22 Sudeste 0 -- -- 84
2018-10-23 10:00:00 14.8 14 Este 22 Este 0 -- -- 86
2018-10-23 09:00:00 15.3 17 Este 23 Sudeste 0 -- -- 83
2018-10-23 08:00:00 15.7 15 Este 21 Este 0 -- -- 78
2018-10-23 07:00:00 15.7 17 Sudeste 22 Sudeste 0 -- -- 76
2018-10-23 06:00:00 16.4 15 Este 21 Este 0 -- -- 72
2018-10-23 05:00:00 17.3 12 Este 18 Este 0 -- -- 68
2018-10-23 04:00:00 16.6 11 Este 15 Este 0 -- -- 71
2018-10-23 03:00:00 15 5 Sudeste 12 Sudeste 0 -- -- 78
2018-10-23 02:00:00 17.1 8 Este 12 Este 0 -- -- 69
2018-10-23 01:00:00 15.5 7 Sudeste 9 Sudeste 0 -- -- 75
2018-10-23 00:00:00 16.4 3 Este 6 Nordeste 0 -- -- 70
2018-10-22 23:00:00 16.8 0 Calma 4 Este 0 -- -- 69
2018-10-22 22:00:00 17.1 5 Nordeste 11 Norte 0 -- -- 69
2018-10-22 21:00:00 17 11 Norte 14 Norte 0 -- -- 72
2018-10-22 20:00:00 17.7 13 Norte 16 Norte 0 -- -- 72
2018-10-22 19:00:00 20.7 11 Norte 16 Norte 0 -- -- 60
2018-10-22 18:00:00 20.5 8 Norte 21 Norte 0 -- -- 60
2018-10-22 17:00:00 21.7 15 Norte 23 Norte 0 -- -- 54
2018-10-22 16:00:00 22 13 Norte 21 Norte 0 -- -- 54
2018-10-22 15:00:00 21.9 8 Norte 17 Norte 0 -- -- 55
2018-10-22 14:00:00 21.4 8 Nordeste 18 Nordeste 0 -- -- 54
2018-10-22 13:00:00 20.8 9 Nordeste 17 Este 0 -- -- 57
2018-10-22 12:00:00 19.2 9 Nordeste 15 Nordeste 0 -- -- 62
2018-10-22 11:00:00 17.1 9 Nordeste 13 Nordeste 0 -- -- 74
2018-10-22 10:00:00 13.4 12 Nordeste 16 Nordeste 0 -- -- 87
2018-10-22 09:00:00 12.1 10 Nordeste 16 Norte 0 -- -- 85
2018-10-22 08:00:00 13.1 3 Sur 5 Sudoeste 0 -- -- 86
2018-10-22 07:00:00 13.5 4 Nordeste 5 Nordeste 0 -- -- 83
2018-10-22 06:00:00 13.1 4 Sur 9 Este 0 -- -- 86
2018-10-22 05:00:00 13.3 8 Este 13 Este 0 -- -- 86
2018-10-22 04:00:00 13.8 13 Este 18 Este 0 -- -- 84
2018-10-22 03:00:00 14.4 8 Sudeste 14 Sudeste 0 -- -- 81
2018-10-22 02:00:00 14.6 10 Este 17 Este 0 -- -- 80
2018-10-22 01:00:00 13.7 9 Sudeste 10 Sudeste 0 -- -- 85
2018-10-22 00:00:00 13.6 9 Este 16 Este 0 -- -- 88
2018-10-21 23:00:00 15.1 12 Sudeste 13 Sudeste 0 -- -- 79
2018-10-21 22:00:00 15.6 9 Sudeste 17 Sudeste 0 -- -- 78
2018-10-21 21:00:00 16.3 11 Este 19 Sudeste 0 -- -- 81
2018-10-21 20:00:00 17 15 Sudeste 25 Sudeste 0 -- -- 77
2018-10-21 19:00:00 19.5 18 Sudeste 28 Sudeste 0 -- -- 66
2018-10-21 18:00:00 20.6 20 Sur 39 Sudeste 0 -- -- 61
2018-10-21 17:00:00 20.6 30 Sur 39 Sudeste 0 -- -- 58
2018-10-21 16:00:00 21 29 Sur 41 Sudeste 0 -- -- 58
2018-10-21 15:00:00 20.4 27 Sudeste 41 Sudeste 0 -- -- 62
2018-10-21 14:00:00 18.2 34 Sudeste 46 Sudeste 0 -- -- 73
2018-10-21 13:00:00 16.7 30 Sudeste 42 Sudeste 0 -- -- 84
2018-10-21 12:00:00 16.8 23 Sudeste 34 Este 0 -- -- 85
2018-10-21 11:00:00 15.7 16 Sudeste 27 Sudeste 0.2 -- -- 87
2018-10-21 10:00:00 13.8 20 Sudeste 31 Sudeste 1.2 -- -- 94
2018-10-21 09:00:00 13.3 15 Este 25 Este 0 -- -- 91
2018-10-21 08:00:00 13 18 Este 22 Este 0 -- -- 94
2018-10-21 07:00:00 12.8 12 Este 20 Sudeste 0 -- -- 88
2018-10-21 06:00:00 13.3 13 Sudeste 25 Sudeste 0.6 -- -- 93
2018-10-21 05:00:00 12.7 13 Sur 21 Este 0 -- -- 95
2018-10-21 04:00:00 12.8 18 Este 22 Este 0 -- -- 95
2018-10-21 03:00:00 12.6 13 Este 21 Este 0 -- -- 96
2018-10-21 02:00:00 12.5 16 Este 25 Este 0 -- -- 96
2018-10-21 01:00:00 12.3 17 Este 33 Este 0.4 -- -- 96
2018-10-21 00:00:00 12.4 23 Este 35 Este 0.2 -- -- 95
2018-10-20 23:00:00 12.8 24 Este 43 Sudeste 4.6 -- -- 91
2018-10-20 22:00:00 13.2 23 Este 32 Este 0 -- -- 94
2018-10-20 21:00:00 13.8 17 Este 25 Este 0.2 -- -- 91
2018-10-20 20:00:00 14.2 11 Este 18 Nordeste 0.4 -- -- 90
2018-10-20 19:00:00 15.5 9 Este 27 Nordeste 0 -- -- 81
2018-10-20 18:00:00 15.7 21 Nordeste 28 Nordeste 0 -- -- 78
2018-10-20 17:00:00 15.9 18 Nordeste 25 Este 0 -- -- 76
2018-10-20 16:00:00 15.9 18 Este 23 Este 0 -- -- 76
2018-10-20 15:00:00 15.1 19 Este 25 Este 0 -- -- 78
2018-10-20 14:00:00 15 16 Este 22 Este 0 -- -- 81
2018-10-20 13:00:00 14.2 17 Este 27 Nordeste 0 -- -- 86
2018-10-20 12:00:00 12.5 19 Este 24 Este 0 -- -- 93
2018-10-20 11:00:00 12.2 10 Este 18 Nordeste 0 -- -- 97
2018-10-20 10:00:00 11.2 7 Este 14 Este 0 -- -- 98
2018-10-20 09:00:00 11.1 13 Este 21 Este 0 -- -- 97
2018-10-20 08:00:00 11.1 17 Este 21 Este 0 -- -- 97
2018-10-20 07:00:00 9.8 12 Nordeste 15 Este 0 -- -- 96
2018-10-20 06:00:00 10.8 6 Este 9 Nordeste 0 -- -- 95
2018-10-20 05:00:00 10.8 4 Este 8 Nordeste 0 -- -- 92
2018-10-20 04:00:00 11.6 6 Este 8 Este 0 -- -- 89
2018-10-20 03:00:00 10.9 7 Nordeste 11 Este 0 -- -- 89
2018-10-20 02:00:00 12 10 Este 11 Este 0 -- -- 87
2018-10-20 01:00:00 12.6 10 Este 12 Este 0 -- -- 83
2018-10-20 00:00:00 12.1 6 Nordeste 13 Este 0 -- -- 84
2018-10-19 23:00:00 12.7 13 Este 14 Este 0 -- -- 81
2018-10-19 22:00:00 12.7 14 Este 19 Este 0 -- -- 81
2018-10-19 21:00:00 13 17 Este 18 Este 0 -- -- 79
2018-10-19 20:00:00 14.3 13 Nordeste 19 Nordeste 0 -- -- 77
2018-10-19 19:00:00 16.4 17 Nordeste 22 Este 0 -- -- 66
2018-10-19 18:00:00 17.6 15 Este 25 Este 0 -- -- 60
2018-10-19 17:00:00 15.9 18 Nordeste 26 Nordeste 0 -- -- 70
2018-10-19 16:00:00 15.9 17 Nordeste 26 Nordeste 0 -- -- 67
2018-10-19 15:00:00 15.3 15 Nordeste 23 Nordeste 0 -- -- 74
2018-10-19 14:00:00 15.1 18 Nordeste 32 Este 0 -- -- 74
2018-10-19 13:00:00 15.7 16 Este 24 Nordeste 0 -- -- 75
2018-10-19 12:00:00 14.3 10 Este 17 Este 0 -- -- 82
2018-10-19 11:00:00 12.7 12 Este 22 Nordeste 0.2 -- -- 87
2018-10-19 10:00:00 11.2 14 Este 18 Nordeste 0 -- -- 94
2018-10-19 09:00:00 9.8 7 Nordeste 12 Este 0 -- -- 95
2018-10-19 08:00:00 9.8 3 Nordeste 7 Nordeste 0.8 -- -- 94
2018-10-19 07:00:00 10.1 4 Nordeste 10 Este 0.6 -- -- 94
2018-10-19 06:00:00 10.3 8 Este 13 Este 0.2 -- -- 91
2018-10-19 05:00:00 10.4 7 Este 9 Este 0.2 -- -- 93
2018-10-19 04:00:00 10.4 5 Sudeste 6 Sudeste 0 -- -- 93
2018-10-19 03:00:00 10.4 2 Noroeste 13 Sudeste 0 -- -- 92
2018-10-19 02:00:00 10.3 3 Este 11 Este 0 -- -- 89
2018-10-19 01:00:00 10.5 4 Sudeste 10 Sur 0 -- -- 90
2018-10-19 00:00:00 10.9 12 Sudeste 25 Sudeste 0 -- -- 87
2018-10-18 23:00:00 11.4 10 Sudeste 18 Este 0 -- -- 89
2018-10-18 22:00:00 11.6 13 Este 17 Este 0 -- -- 89
2018-10-18 21:00:00 12 8 Sudeste 12 Sudeste 0 -- -- 85
2018-10-18 20:00:00 12.3 4 Sudeste 14 Sudeste 0 -- -- 88
2018-10-18 19:00:00 13 8 Este 12 Este 0 -- -- 89
2018-10-18 18:00:00 12.5 10 Nordeste 19 Nordeste 0.6 -- -- 88
2018-10-18 17:00:00 13.1 10 Este 22 Este 0 -- -- 85
2018-10-18 16:00:00 13 17 Este 26 Este 0 -- -- 86
2018-10-18 15:00:00 13.5 17 Este 40 Nordeste 0 -- -- 90
2018-10-18 14:00:00 13.7 30 Nordeste 44 Nordeste 0 -- -- 91
2018-10-18 13:00:00 12.5 25 Nordeste 34 Norte 1.4 -- -- 97
2018-10-18 12:00:00 10.9 13 Norte 22 Norte 5.6 -- -- 97
2018-10-18 11:00:00 10.3 17 Norte 31 Norte 1 -- -- 97
2018-10-18 10:00:00 9.8 23 Norte 40 Nordeste 5.2 -- -- 97
2018-10-18 09:00:00 10.9 28 Nordeste 39 Norte 0.4 -- -- 96
2018-10-18 08:00:00 10.6 21 Norte 27 Noroeste 1.2 -- -- 96
2018-10-18 07:00:00 10.9 19 Noroeste 25 Oeste 1.4 -- -- 96
2018-10-18 06:00:00 11.1 14 Oeste 24 Noroeste 0 -- -- 95
2018-10-18 05:00:00 11.5 15 Noroeste 26 Noroeste 0 -- -- 95
2018-10-18 04:00:00 13 14 Noroeste 19 Noroeste 0 -- -- 91
2018-10-18 03:00:00 13.7 6 Oeste 9 Oeste 0 -- -- 89
2018-10-18 02:00:00 13.7 8 Oeste 13 Oeste 0 -- -- 86
2018-10-18 01:00:00 14 11 Oeste 17 Oeste 0 -- -- 83
2018-10-18 00:00:00 15 7 Sudoeste 13 Sudoeste 0 -- -- 77